TimeCDT,TemperatureF,Dew PointF,Humidity,Sea Level PressureIn,VisibilityMPH,Wind Direction,Wind SpeedMPH,Gust SpeedMPH,PrecipitationIn,Events,Conditions,WindDirDegrees,DateUTC
12:15 AM,60.1,55.6,85,30.09,10.0,NW,4.6,-,N/A,,Clear,320,2013-08-13 05:15:00
12:35 AM,59.0,55.4,88,30.08,10.0,NNW,4.6,-,N/A,,Clear,330,2013-08-13 05:35:00
12:55 AM,59.0,55.4,88,30.08,10.0,NW,3.5,-,N/A,,Clear,310,2013-08-13 05:55:00
1:15 AM,58.3,55.0,89,30.08,10.0,NW,3.5,-,N/A,,Clear,320,2013-08-13 06:15:00
1:35 AM,58.1,54.7,88,30.08,10.0,WNW,4.6,-,N/A,,Clear,300,2013-08-13 06:35:00
1:55 AM,57.2,54.1,89,30.08,10.0,WNW,5.8,-,N/A,,Clear,290,2013-08-13 06:55:00
2:15 AM,56.7,53.8,90,30.08,10.0,WNW,4.6,-,N/A,,Clear,300,2013-08-13 07:15:00
2:35 AM,56.3,53.6,91,30.07,10.0,WNW,5.8,-,N/A,,Clear,290,2013-08-13 07:35:00
2:55 AM,56.1,53.4,91,30.08,10.0,West,4.6,-,N/A,,Clear,260,2013-08-13 07:55:00
3:15 AM,55.8,53.2,91,30.09,10.0,West,6.9,-,N/A,,Clear,280,2013-08-13 08:15:00
3:35 AM,55.8,53.2,91,30.10,10.0,West,6.9,-,N/A,,Clear,270,2013-08-13 08:35:00
3:55 AM,55.4,52.7,91,30.09,10.0,NW,4.6,-,N/A,,Clear,310,2013-08-13 08:55:00
4:15 AM,54.9,52.3,91,30.10,7.0,WNW,5.8,-,N/A,,Clear,290,2013-08-13 09:15:00
4:35 AM,55.2,52.7,91,30.11,10.0,West,5.8,-,N/A,,Clear,270,2013-08-13 09:35:00
4:55 AM,54.9,52.3,91,30.11,10.0,West,6.9,-,N/A,,Clear,280,2013-08-13 09:55:00
5:15 AM,54.5,52.0,91,30.10,10.0,NW,4.6,-,N/A,,Clear,310,2013-08-13 10:15:00
5:35 AM,54.3,51.8,91,30.10,10.0,NW,3.5,-,N/A,,Clear,320,2013-08-13 10:35:00
5:55 AM,54.3,51.8,91,30.10,7.0,WNW,4.6,-,N/A,,Clear,300,2013-08-13 10:55:00
6:15 AM,54.1,51.8,92,30.11,10.0,WNW,5.8,-,N/A,,Clear,290,2013-08-13 11:15:00
6:35 AM,54.1,51.8,92,30.11,7.0,WNW,4.6,-,N/A,,Clear,300,2013-08-13 11:35:00
6:55 AM,54.7,52.2,91,30.11,7.0,NW,3.5,-,N/A,,Clear,310,2013-08-13 11:55:00
7:15 AM,55.6,53.1,91,30.11,7.0,NW,3.5,-,N/A,,Clear,310,2013-08-13 12:15:00
7:35 AM,57.0,54.0,89,30.12,10.0,WNW,3.5,-,N/A,,Clear,300,2013-08-13 12:35:00
7:55 AM,58.5,54.7,87,30.11,10.0,NW,3.5,-,N/A,,Clear,320,2013-08-13 12:55:00
8:15 AM,60.4,55.9,85,30.11,10.0,North,4.6,-,N/A,,Clear,350,2013-08-13 13:15:00
8:35 AM,61.7,56.1,82,30.12,10.0,North,5.8,-,N/A,,Clear,350,2013-08-13 13:35:00
8:55 AM,63.5,57.6,81,30.13,10.0,North,4.6,-,N/A,,Clear,360,2013-08-13 13:55:00
2:35 PM,-9999,-9999,N/A,30.15,-9999.0,North,4.6,-,N/A,,Unknown,10,2013-08-13 19:35:00
2:55 PM,75.7,51.3,42,30.15,10.0,North,8.1,-,N/A,,Mostly Cloudy,10,2013-08-13 19:55:00
3:15 PM,76.1,50.2,40,30.14,10.0,North,9.2,-,N/A,,Scattered Clouds,350,2013-08-13 20:15:00
3:35 PM,76.3,50.9,41,30.14,10.0,NNW,8.1,-,N/A,,Clear,340,2013-08-13 20:35:00
3:55 PM,76.3,50.5,40,30.13,10.0,North,5.8,-,N/A,,Scattered Clouds,350,2013-08-13 20:55:00
4:15 PM,76.3,50.2,40,30.13,10.0,NE,10.4,-,N/A,,Scattered Clouds,50,2013-08-13 21:15:00
4:35 PM,76.6,48.9,38,30.13,10.0,North,8.1,-,N/A,,Scattered Clouds,350,2013-08-13 21:35:00
4:55 PM,76.3,50.0,40,30.13,10.0,NNE,8.1,-,N/A,,Scattered Clouds,30,2013-08-13 21:55:00
5:15 PM,76.5,49.3,38,30.12,10.0,North,5.8,-,N/A,,Scattered Clouds,360,2013-08-13 22:15:00
5:35 PM,75.9,50.9,41,30.13,10.0,NNE,6.9,-,N/A,,Scattered Clouds,30,2013-08-13 22:35:00
5:55 PM,74.7,53.2,47,30.13,10.0,NNE,8.1,-,N/A,,Scattered Clouds,30,2013-08-13 22:55:00
7:15 PM,72.1,53.4,52,30.11,10.0,ENE,8.1,-,N/A,,Clear,70,2013-08-14 00:15:00
7:35 PM,71.1,53.8,54,30.12,10.0,ENE,5.8,-,N/A,,Clear,70,2013-08-14 00:35:00
7:55 PM,68.5,56.3,65,30.13,10.0,East,4.6,-,N/A,,Scattered Clouds,90,2013-08-14 00:55:00
8:15 PM,68.4,54.7,62,30.13,10.0,East,5.8,-,N/A,,Scattered Clouds,80,2013-08-14 01:15:00
8:35 PM,66.9,54.5,64,30.13,10.0,East,5.8,-,N/A,,Scattered Clouds,80,2013-08-14 01:35:00
8:55 PM,66.2,53.8,64,30.14,10.0,ENE,5.8,-,N/A,,Clear,70,2013-08-14 01:55:00
9:15 PM,66.0,53.2,63,30.15,10.0,East,5.8,-,N/A,,Clear,80,2013-08-14 02:15:00
9:35 PM,64.8,53.4,67,30.16,10.0,ENE,5.8,-,N/A,,Clear,70,2013-08-14 02:35:00
9:55 PM,63.9,53.1,68,30.17,10.0,ENE,4.6,-,N/A,,Clear,70,2013-08-14 02:55:00
10:15 PM,62.8,53.6,72,30.17,10.0,ENE,4.6,-,N/A,,Clear,70,2013-08-14 03:15:00
10:35 PM,61.2,53.6,76,30.18,10.0,East,3.5,-,N/A,,Clear,80,2013-08-14 03:35:00
10:55 PM,61.2,53.2,75,30.18,10.0,East,4.6,-,N/A,,Clear,80,2013-08-14 03:55:00
11:15 PM,58.6,52.9,81,30.18,10.0,Calm,Calm,-,N/A,,Clear,0,2013-08-14 04:15:00
11:35 PM,59.0,52.7,80,30.18,10.0,SE,3.5,-,N/A,,Clear,130,2013-08-14 04:35:00